sensor_id;sensor_type;location;lat;lon;timestamp;temperature;humidity
7846;DHT22;3968;51.424;6.788;2022-07-04T00:00:48;18.00;99.90
7846;DHT22;3968;51.424;6.788;2022-07-04T00:03:14;18.00;99.90
7846;DHT22;3968;51.424;6.788;2022-07-04T00:05:39;17.90;99.90
7846;DHT22;3968;51.424;6.788;2022-07-04T00:08:05;17.90;99.90
7846;DHT22;3968;51.424;6.788;2022-07-04T00:10:31;17.90;99.90
7846;DHT22;3968;51.424;6.788;2022-07-04T00:12:57;17.80;99.90
7846;DHT22;3968;51.424;6.788;2022-07-04T00:15:22;17.90;99.90
7846;DHT22;3968;51.424;6.788;2022-07-04T00:17:48;17.90;99.90
7846;DHT22;3968;51.424;6.788;2022-07-04T00:20:14;17.90;99.90
7846;DHT22;3968;51.424;6.788;2022-07-04T00:22:40;17.70;99.90
7846;DHT22;3968;51.424;6.788;2022-07-04T00:25:06;17.70;99.90
7846;DHT22;3968;51.424;6.788;2022-07-04T00:27:32;17.70;99.90
7846;DHT22;3968;51.424;6.788;2022-07-04T00:29:57;17.60;99.90
7846;DHT22;3968;51.424;6.788;2022-07-04T00:32:23;17.60;99.90
7846;DHT22;3968;51.424;6.788;2022-07-04T00:34:49;17.60;99.90
7846;DHT22;3968;51.424;6.788;2022-07-04T00:37:14;17.60;99.90
7846;DHT22;3968;51.424;6.788;2022-07-04T00:39:40;17.50;99.90
7846;DHT22;3968;51.424;6.788;2022-07-04T00:42:08;17.40;99.90
7846;DHT22;3968;51.424;6.788;2022-07-04T00:44:34;17.40;99.90
7846;DHT22;3968;51.424;6.788;2022-07-04T00:47:06;17.30;99.90
7846;DHT22;3968;51.424;6.788;2022-07-04T00:49:33;17.20;99.90
7846;DHT22;3968;51.424;6.788;2022-07-04T00:52:00;17.10;99.90
7846;DHT22;3968;51.424;6.788;2022-07-04T00:54:30;17.10;99.90
7846;DHT22;3968;51.424;6.788;2022-07-04T00:56:57;17.00;99.90
7846;DHT22;3968;51.424;6.788;2022-07-04T00:59:23;17.00;99.90
7846;DHT22;3968;51.424;6.788;2022-07-04T01:01:50;17.00;99.90
7846;DHT22;3968;51.424;6.788;2022-07-04T01:04:16;17.00;99.90
7846;DHT22;3968;51.424;6.788;2022-07-04T01:06:42;16.90;99.90
7846;DHT22;3968;51.424;6.788;2022-07-04T01:09:08;17.00;99.90
7846;DHT22;3968;51.424;6.788;2022-07-04T01:11:34;16.90;99.90
7846;DHT22;3968;51.424;6.788;2022-07-04T01:14:00;16.90;99.90
7846;DHT22;3968;51.424;6.788;2022-07-04T01:16:26;17.00;99.90
7846;DHT22;3968;51.424;6.788;2022-07-04T01:18:52;17.00;99.90
7846;DHT22;3968;51.424;6.788;2022-07-04T01:21:19;17.00;99.90
7846;DHT22;3968;51.424;6.788;2022-07-04T01:23:45;16.90;99.90
7846;DHT22;3968;51.424;6.788;2022-07-04T01:26:11;16.90;99.90
7846;DHT22;3968;51.424;6.788;2022-07-04T01:28:37;16.90;99.90
7846;DHT22;3968;51.424;6.788;2022-07-04T01:31:04;16.90;99.90
7846;DHT22;3968;51.424;6.788;2022-07-04T01:33:29;16.90;99.90
7846;DHT22;3968;51.424;6.788;2022-07-04T01:35:55;16.90;99.90
7846;DHT22;3968;51.424;6.788;2022-07-04T01:38:21;16.80;99.90
7846;DHT22;3968;51.424;6.788;2022-07-04T01:40:47;16.80;99.90
7846;DHT22;3968;51.424;6.788;2022-07-04T01:43:12;16.70;99.90
7846;DHT22;3968;51.424;6.788;2022-07-04T01:45:38;16.70;99.90
7846;DHT22;3968;51.424;6.788;2022-07-04T01:48:08;16.70;99.90
7846;DHT22;3968;51.424;6.788;2022-07-04T01:50:35;16.60;99.90
7846;DHT22;3968;51.424;6.788;2022-07-04T01:53:00;16.50;99.90
7846;DHT22;3968;51.424;6.788;2022-07-04T01:55:26;16.40;99.90
7846;DHT22;3968;51.424;6.788;2022-07-04T01:57:52;16.30;99.90
7846;DHT22;3968;51.424;6.788;2022-07-04T02:00:18;16.10;99.90
7846;DHT22;3968;51.424;6.788;2022-07-04T02:03:02;15.90;99.90
7846;DHT22;3968;51.424;6.788;2022-07-04T02:05:28;15.70;99.90
7846;DHT22;3968;51.424;6.788;2022-07-04T02:07:54;15.50;99.90
7846;DHT22;3968;51.424;6.788;2022-07-04T02:10:19;15.40;99.90
7846;DHT22;3968;51.424;6.788;2022-07-04T02:12:46;15.30;99.90
7846;DHT22;3968;51.424;6.788;2022-07-04T02:15:28;15.20;99.90
7846;DHT22;3968;51.424;6.788;2022-07-04T02:17:54;15.20;99.90
7846;DHT22;3968;51.424;6.788;2022-07-04T02:20:20;15.10;99.90
7846;DHT22;3968;51.424;6.788;2022-07-04T02:22:46;15.10;99.90
7846;DHT22;3968;51.424;6.788;2022-07-04T02:25:11;15.10;99.90
7846;DHT22;3968;51.424;6.788;2022-07-04T02:27:38;15.00;99.90
7846;DHT22;3968;51.424;6.788;2022-07-04T02:30:04;14.90;99.90
7846;DHT22;3968;51.424;6.788;2022-07-04T02:32:30;14.80;99.90
7846;DHT22;3968;51.424;6.788;2022-07-04T02:34:56;14.60;99.90
7846;DHT22;3968;51.424;6.788;2022-07-04T02:37:22;14.60;99.90
7846;DHT22;3968;51.424;6.788;2022-07-04T02:39:47;14.50;99.90
7846;DHT22;3968;51.424;6.788;2022-07-04T02:42:13;14.60;99.90
7846;DHT22;3968;51.424;6.788;2022-07-04T02:44:39;14.70;99.90
7846;DHT22;3968;51.424;6.788;2022-07-04T02:47:04;14.70;99.90
7846;DHT22;3968;51.424;6.788;2022-07-04T02:49:30;14.70;99.90
7846;DHT22;3968;51.424;6.788;2022-07-04T02:51:56;14.70;99.90
7846;DHT22;3968;51.424;6.788;2022-07-04T02:54:21;14.60;99.90
7846;DHT22;3968;51.424;6.788;2022-07-04T02:56:47;14.60;99.90
7846;DHT22;3968;51.424;6.788;2022-07-04T02:59:12;14.60;99.90
7846;DHT22;3968;51.424;6.788;2022-07-04T03:01:38;14.50;99.90
7846;DHT22;3968;51.424;6.788;2022-07-04T03:04:04;14.50;99.90
7846;DHT22;3968;51.424;6.788;2022-07-04T03:06:30;14.50;99.90
7846;DHT22;3968;51.424;6.788;2022-07-04T03:08:55;14.40;99.90
7846;DHT22;3968;51.424;6.788;2022-07-04T03:11:21;14.40;99.90
7846;DHT22;3968;51.424;6.788;2022-07-04T03:13:47;14.40;99.90
7846;DHT22;3968;51.424;6.788;2022-07-04T03:16:13;14.40;99.90
7846;DHT22;3968;51.424;6.788;2022-07-04T03:18:39;14.30;99.90
7846;DHT22;3968;51.424;6.788;2022-07-04T03:21:04;14.30;99.90
7846;DHT22;3968;51.424;6.788;2022-07-04T03:23:34;14.30;99.90
7846;DHT22;3968;51.424;6.788;2022-07-04T03:26:00;14.10;99.90
7846;DHT22;3968;51.424;6.788;2022-07-04T03:28:27;14.00;99.90
7846;DHT22;3968;51.424;6.788;2022-07-04T03:30:52;13.90;99.90
7846;DHT22;3968;51.424;6.788;2022-07-04T03:33:18;13.90;99.90
7846;DHT22;3968;51.424;6.788;2022-07-04T03:35:44;13.90;99.90
7846;DHT22;3968;51.424;6.788;2022-07-04T03:38:10;13.90;99.90
7846;DHT22;3968;51.424;6.788;2022-07-04T03:40:36;13.90;99.90
7846;DHT22;3968;51.424;6.788;2022-07-04T03:43:03;14.00;99.90
7846;DHT22;3968;51.424;6.788;2022-07-04T03:45:30;14.00;99.90
7846;DHT22;3968;51.424;6.788;2022-07-04T03:47:56;14.00;99.90
7846;DHT22;3968;51.424;6.788;2022-07-04T03:50:22;13.90;99.90
7846;DHT22;3968;51.424;6.788;2022-07-04T03:52:48;13.80;99.90
7846;DHT22;3968;51.424;6.788;2022-07-04T03:55:14;13.80;99.90
7846;DHT22;3968;51.424;6.788;2022-07-04T03:57:39;13.80;99.90
7846;DHT22;3968;51.424;6.788;2022-07-04T04:00:05;13.70;99.90
7846;DHT22;3968;51.424;6.788;2022-07-04T04:02:33;13.80;99.90
7846;DHT22;3968;51.424;6.788;2022-07-04T04:04:59;13.80;99.90
7846;DHT22;3968;51.424;6.788;2022-07-04T04:07:43;13.80;99.90
7846;DHT22;3968;51.424;6.788;2022-07-04T04:10:09;13.80;99.90
7846;DHT22;3968;51.424;6.788;2022-07-04T04:12:35;13.90;99.90
7846;DHT22;3968;51.424;6.788;2022-07-04T04:15:01;13.90;99.90
7846;DHT22;3968;51.424;6.788;2022-07-04T04:17:27;13.90;99.90
7846;DHT22;3968;51.424;6.788;2022-07-04T04:19:52;14.00;99.90
7846;DHT22;3968;51.424;6.788;2022-07-04T04:22:18;14.00;99.90
7846;DHT22;3968;51.424;6.788;2022-07-04T04:24:43;14.00;99.90
7846;DHT22;3968;51.424;6.788;2022-07-04T04:27:09;14.10;99.90
7846;DHT22;3968;51.424;6.788;2022-07-04T04:29:35;14.20;99.90
7846;DHT22;3968;51.424;6.788;2022-07-04T04:32:00;14.20;99.90
7846;DHT22;3968;51.424;6.788;2022-07-04T04:34:26;14.30;99.90
7846;DHT22;3968;51.424;6.788;2022-07-04T04:36:52;14.40;99.90
7846;DHT22;3968;51.424;6.788;2022-07-04T04:39:17;14.50;99.90
7846;DHT22;3968;51.424;6.788;2022-07-04T04:41:43;14.50;99.90
7846;DHT22;3968;51.424;6.788;2022-07-04T04:44:09;14.50;99.90
7846;DHT22;3968;51.424;6.788;2022-07-04T04:46:34;14.60;99.90
7846;DHT22;3968;51.424;6.788;2022-07-04T04:49:00;14.60;99.90
7846;DHT22;3968;51.424;6.788;2022-07-04T04:51:26;14.70;99.90
7846;DHT22;3968;51.424;6.788;2022-07-04T04:53:51;14.70;99.90
7846;DHT22;3968;51.424;6.788;2022-07-04T04:56:17;14.80;99.90
7846;DHT22;3968;51.424;6.788;2022-07-04T04:58:43;14.80;99.90
7846;DHT22;3968;51.424;6.788;2022-07-04T05:01:08;14.80;99.90
7846;DHT22;3968;51.424;6.788;2022-07-04T05:03:34;14.90;99.90
7846;DHT22;3968;51.424;6.788;2022-07-04T05:06:00;15.00;99.90
7846;DHT22;3968;51.424;6.788;2022-07-04T05:08:26;15.00;99.90
7846;DHT22;3968;51.424;6.788;2022-07-04T05:10:52;15.00;99.90
7846;DHT22;3968;51.424;6.788;2022-07-04T05:13:19;15.00;99.90
7846;DHT22;3968;51.424;6.788;2022-07-04T05:15:45;15.00;99.90
7846;DHT22;3968;51.424;6.788;2022-07-04T05:18:12;15.10;99.90
7846;DHT22;3968;51.424;6.788;2022-07-04T05:20:37;15.20;99.90
7846;DHT22;3968;51.424;6.788;2022-07-04T05:23:05;15.20;99.90
7846;DHT22;3968;51.424;6.788;2022-07-04T05:25:31;15.40;99.90
7846;DHT22;3968;51.424;6.788;2022-07-04T05:27:57;15.50;99.90
7846;DHT22;3968;51.424;6.788;2022-07-04T05:30:23;15.60;99.90
7846;DHT22;3968;51.424;6.788;2022-07-04T05:32:49;15.70;99.90
7846;DHT22;3968;51.424;6.788;2022-07-04T05:35:14;15.80;99.90
7846;DHT22;3968;51.424;6.788;2022-07-04T05:37:40;15.80;99.90
7846;DHT22;3968;51.424;6.788;2022-07-04T05:40:06;15.80;99.90
7846;DHT22;3968;51.424;6.788;2022-07-04T05:42:34;15.90;99.90
7846;DHT22;3968;51.424;6.788;2022-07-04T05:45:00;15.90;99.90
7846;DHT22;3968;51.424;6.788;2022-07-04T05:47:25;16.00;99.90
7846;DHT22;3968;51.424;6.788;2022-07-04T05:49:52;16.10;99.90
7846;DHT22;3968;51.424;6.788;2022-07-04T05:52:18;16.20;99.90
7846;DHT22;3968;51.424;6.788;2022-07-04T05:54:43;16.20;99.90
7846;DHT22;3968;51.424;6.788;2022-07-04T05:57:09;16.30;99.90
7846;DHT22;3968;51.424;6.788;2022-07-04T05:59:35;16.40;99.90
7846;DHT22;3968;51.424;6.788;2022-07-04T06:02:00;16.40;99.90
7846;DHT22;3968;51.424;6.788;2022-07-04T06:04:26;16.30;99.90
7846;DHT22;3968;51.424;6.788;2022-07-04T06:06:51;16.50;99.90
7846;DHT22;3968;51.424;6.788;2022-07-04T06:09:17;16.60;99.90
7846;DHT22;3968;51.424;6.788;2022-07-04T06:11:43;16.70;99.90
7846;DHT22;3968;51.424;6.788;2022-07-04T06:14:09;16.70;99.90
7846;DHT22;3968;51.424;6.788;2022-07-04T06:16:34;16.80;99.90
7846;DHT22;3968;51.424;6.788;2022-07-04T06:19:00;17.00;99.90
7846;DHT22;3968;51.424;6.788;2022-07-04T06:21:26;17.00;99.90
7846;DHT22;3968;51.424;6.788;2022-07-04T06:23:51;17.00;99.90
7846;DHT22;3968;51.424;6.788;2022-07-04T06:26:17;17.00;99.90
7846;DHT22;3968;51.424;6.788;2022-07-04T06:28:43;17.20;99.90
7846;DHT22;3968;51.424;6.788;2022-07-04T06:31:10;17.20;99.90
7846;DHT22;3968;51.424;6.788;2022-07-04T06:33:36;17.40;99.90
7846;DHT22;3968;51.424;6.788;2022-07-04T06:36:21;17.50;99.90
7846;DHT22;3968;51.424;6.788;2022-07-04T06:38:47;17.70;99.90
7846;DHT22;3968;51.424;6.788;2022-07-04T06:41:13;17.70;99.90
7846;DHT22;3968;51.424;6.788;2022-07-04T06:43:39;17.70;99.90
7846;DHT22;3968;51.424;6.788;2022-07-04T06:46:05;17.80;99.90
7846;DHT22;3968;51.424;6.788;2022-07-04T06:48:30;17.90;99.90
7846;DHT22;3968;51.424;6.788;2022-07-04T06:50:56;17.90;99.90
7846;DHT22;3968;51.424;6.788;2022-07-04T06:53:21;17.90;99.90
7846;DHT22;3968;51.424;6.788;2022-07-04T06:55:47;18.00;99.90
7846;DHT22;3968;51.424;6.788;2022-07-04T06:58:13;18.00;99.90
7846;DHT22;3968;51.424;6.788;2022-07-04T07:00:40;18.20;99.90
7846;DHT22;3968;51.424;6.788;2022-07-04T07:03:07;18.10;99.90
7846;DHT22;3968;51.424;6.788;2022-07-04T07:05:32;18.30;99.90
7846;DHT22;3968;51.424;6.788;2022-07-04T07:07:59;18.40;99.90
7846;DHT22;3968;51.424;6.788;2022-07-04T07:10:25;18.40;99.90
7846;DHT22;3968;51.424;6.788;2022-07-04T07:12:51;18.50;99.90
7846;DHT22;3968;51.424;6.788;2022-07-04T07:15:16;18.50;99.90
7846;DHT22;3968;51.424;6.788;2022-07-04T07:17:44;18.50;99.90
7846;DHT22;3968;51.424;6.788;2022-07-04T07:20:10;18.50;99.90
7846;DHT22;3968;51.424;6.788;2022-07-04T07:22:35;18.70;99.90
7846;DHT22;3968;51.424;6.788;2022-07-04T07:25:01;18.70;99.90
7846;DHT22;3968;51.424;6.788;2022-07-04T07:27:27;18.80;99.90
7846;DHT22;3968;51.424;6.788;2022-07-04T07:29:53;19.10;99.90
7846;DHT22;3968;51.424;6.788;2022-07-04T07:32:18;19.30;99.90
7846;DHT22;3968;51.424;6.788;2022-07-04T07:34:44;19.50;99.90
7846;DHT22;3968;51.424;6.788;2022-07-04T07:37:10;19.50;99.90
7846;DHT22;3968;51.424;6.788;2022-07-04T07:39:35;19.60;99.90
7846;DHT22;3968;51.424;6.788;2022-07-04T07:42:01;19.80;99.90
7846;DHT22;3968;51.424;6.788;2022-07-04T07:44:27;19.60;99.90
7846;DHT22;3968;51.424;6.788;2022-07-04T07:46:53;19.60;99.90
7846;DHT22;3968;51.424;6.788;2022-07-04T07:49:18;19.70;99.90
7846;DHT22;3968;51.424;6.788;2022-07-04T07:51:44;19.80;99.90
7846;DHT22;3968;51.424;6.788;2022-07-04T07:54:10;20.00;99.90
7846;DHT22;3968;51.424;6.788;2022-07-04T07:56:36;20.10;99.90
7846;DHT22;3968;51.424;6.788;2022-07-04T07:59:01;20.00;99.90
7846;DHT22;3968;51.424;6.788;2022-07-04T08:01:27;19.80;99.90
7846;DHT22;3968;51.424;6.788;2022-07-04T08:03:53;20.00;99.90
7846;DHT22;3968;51.424;6.788;2022-07-04T08:06:37;20.20;99.90
7846;DHT22;3968;51.424;6.788;2022-07-04T08:09:03;20.30;99.90
7846;DHT22;3968;51.424;6.788;2022-07-04T08:11:29;20.50;99.90
7846;DHT22;3968;51.424;6.788;2022-07-04T08:13:55;20.50;99.90
7846;DHT22;3968;51.424;6.788;2022-07-04T08:16:20;20.70;99.90
7846;DHT22;3968;51.424;6.788;2022-07-04T08:18:46;20.60;99.90
7846;DHT22;3968;51.424;6.788;2022-07-04T08:21:12;20.80;99.90
7846;DHT22;3968;51.424;6.788;2022-07-04T08:23:39;21.00;99.90
7846;DHT22;3968;51.424;6.788;2022-07-04T08:26:04;21.30;99.90
7846;DHT22;3968;51.424;6.788;2022-07-04T08:28:30;21.20;99.90
7846;DHT22;3968;51.424;6.788;2022-07-04T08:30:56;20.90;99.90
7846;DHT22;3968;51.424;6.788;2022-07-04T08:33:22;21.00;99.90
7846;DHT22;3968;51.424;6.788;2022-07-04T08:35:48;20.90;99.90
7846;DHT22;3968;51.424;6.788;2022-07-04T08:38:15;20.80;99.90
7846;DHT22;3968;51.424;6.788;2022-07-04T08:40:41;20.80;99.90
7846;DHT22;3968;51.424;6.788;2022-07-04T08:43:12;20.90;99.90
7846;DHT22;3968;51.424;6.788;2022-07-04T08:45:38;21.20;99.90
7846;DHT22;3968;51.424;6.788;2022-07-04T08:48:06;21.30;99.90
7846;DHT22;3968;51.424;6.788;2022-07-04T08:50:44;21.50;99.90
7846;DHT22;3968;51.424;6.788;2022-07-04T08:53:15;21.60;99.90
7846;DHT22;3968;51.424;6.788;2022-07-04T08:55:42;21.50;99.90
7846;DHT22;3968;51.424;6.788;2022-07-04T08:58:29;21.50;99.90
7846;DHT22;3968;51.424;6.788;2022-07-04T09:01:08;21.50;99.90
7846;DHT22;3968;51.424;6.788;2022-07-04T09:03:44;21.60;99.90
7846;DHT22;3968;51.424;6.788;2022-07-04T09:06:11;21.80;99.90
7846;DHT22;3968;51.424;6.788;2022-07-04T09:08:38;21.70;99.90
7846;DHT22;3968;51.424;6.788;2022-07-04T09:11:04;21.70;99.90
7846;DHT22;3968;51.424;6.788;2022-07-04T09:13:30;21.70;99.90
7846;DHT22;3968;51.424;6.788;2022-07-04T09:15:56;21.60;99.90
7846;DHT22;3968;51.424;6.788;2022-07-04T09:18:24;21.50;99.90
7846;DHT22;3968;51.424;6.788;2022-07-04T09:20:50;21.60;99.90
7846;DHT22;3968;51.424;6.788;2022-07-04T09:23:36;21.70;99.90
7846;DHT22;3968;51.424;6.788;2022-07-04T09:31:21;21.70;99.90
7846;DHT22;3968;51.424;6.788;2022-07-04T09:36:16;22.10;99.90
7846;DHT22;3968;51.424;6.788;2022-07-04T09:38:43;22.20;99.90
7846;DHT22;3968;51.424;6.788;2022-07-04T09:41:09;22.40;99.90
7846;DHT22;3968;51.424;6.788;2022-07-04T09:44:04;22.50;99.90
7846;DHT22;3968;51.424;6.788;2022-07-04T09:46:31;22.50;99.90
7846;DHT22;3968;51.424;6.788;2022-07-04T09:48:57;22.60;99.90
7846;DHT22;3968;51.424;6.788;2022-07-04T09:56:50;22.90;99.90
7846;DHT22;3968;51.424;6.788;2022-07-04T09:59:20;22.90;99.90
7846;DHT22;3968;51.424;6.788;2022-07-04T10:01:46;22.80;99.90
7846;DHT22;3968;51.424;6.788;2022-07-04T10:04:12;22.90;99.60
7846;DHT22;3968;51.424;6.788;2022-07-04T10:06:43;22.80;97.10
7846;DHT22;3968;51.424;6.788;2022-07-04T10:09:14;22.80;95.50
7846;DHT22;3968;51.424;6.788;2022-07-04T10:11:41;23.30;97.00
7846;DHT22;3968;51.424;6.788;2022-07-04T10:14:10;24.00;93.60
7846;DHT22;3968;51.424;6.788;2022-07-04T10:16:37;25.30;87.20
7846;DHT22;3968;51.424;6.788;2022-07-04T10:19:07;26.00;74.60
7846;DHT22;3968;51.424;6.788;2022-07-04T10:21:33;26.80;72.10
7846;DHT22;3968;51.424;6.788;2022-07-04T10:24:00;27.20;67.10
7846;DHT22;3968;51.424;6.788;2022-07-04T10:26:28;28.10;61.50
7846;DHT22;3968;51.424;6.788;2022-07-04T10:28:55;29.10;56.40
7846;DHT22;3968;51.424;6.788;2022-07-04T10:31:23;29.80;50.70
7846;DHT22;3968;51.424;6.788;2022-07-04T10:33:50;30.50;49.00
7846;DHT22;3968;51.424;6.788;2022-07-04T10:36:18;31.10;47.10
7846;DHT22;3968;51.424;6.788;2022-07-04T10:38:56;30.40;47.80
7846;DHT22;3968;51.424;6.788;2022-07-04T10:41:23;29.40;49.30
7846;DHT22;3968;51.424;6.788;2022-07-04T10:43:52;29.40;48.90
7846;DHT22;3968;51.424;6.788;2022-07-04T10:46:29;30.40;48.50
7846;DHT22;3968;51.424;6.788;2022-07-04T10:51:39;32.40;42.70
7846;DHT22;3968;51.424;6.788;2022-07-04T10:54:06;31.60;44.00
7846;DHT22;3968;51.424;6.788;2022-07-04T10:56:37;32.60;43.10
7846;DHT22;3968;51.424;6.788;2022-07-04T10:59:18;31.30;41.50
7846;DHT22;3968;51.424;6.788;2022-07-04T11:07:21;33.80;37.30
7846;DHT22;3968;51.424;6.788;2022-07-04T11:18:01;31.00;43.20
7846;DHT22;3968;51.424;6.788;2022-07-04T11:20:30;33.10;41.10
7846;DHT22;3968;51.424;6.788;2022-07-04T11:23:15;32.60;36.90
7846;DHT22;3968;51.424;6.788;2022-07-04T11:25:43;31.70;39.10
7846;DHT22;3968;51.424;6.788;2022-07-04T11:28:23;31.10;39.90
7846;DHT22;3968;51.424;6.788;2022-07-04T11:30:53;32.60;39.10
7846;DHT22;3968;51.424;6.788;2022-07-04T11:33:24;34.60;36.30
7846;DHT22;3968;51.424;6.788;2022-07-04T11:41:12;34.10;36.10
7846;DHT22;3968;51.424;6.788;2022-07-04T11:44:13;33.70;34.40
7846;DHT22;3968;51.424;6.788;2022-07-04T11:47:22;33.40;34.70
7846;DHT22;3968;51.424;6.788;2022-07-04T11:49:53;32.60;36.10
7846;DHT22;3968;51.424;6.788;2022-07-04T11:52:30;34.00;34.50
7846;DHT22;3968;51.424;6.788;2022-07-04T11:54:56;35.40;32.70
7846;DHT22;3968;51.424;6.788;2022-07-04T11:57:33;34.20;30.80
7846;DHT22;3968;51.424;6.788;2022-07-04T12:00:02;33.70;32.20
7846;DHT22;3968;51.424;6.788;2022-07-04T12:02:30;33.40;33.40
7846;DHT22;3968;51.424;6.788;2022-07-04T12:04:56;33.40;33.90
7846;DHT22;3968;51.424;6.788;2022-07-04T12:07:25;35.70;30.60
7846;DHT22;3968;51.424;6.788;2022-07-04T12:09:51;33.20;30.30
7846;DHT22;3968;51.424;6.788;2022-07-04T12:12:18;31.00;35.10
7846;DHT22;3968;51.424;6.788;2022-07-04T12:15:07;30.20;36.60
7846;DHT22;3968;51.424;6.788;2022-07-04T12:17:34;31.80;36.80
7846;DHT22;3968;51.424;6.788;2022-07-04T12:25:23;35.50;30.80
7846;DHT22;3968;51.424;6.788;2022-07-04T12:28:01;35.80;30.00
7846;DHT22;3968;51.424;6.788;2022-07-04T12:30:30;34.20;31.30
7846;DHT22;3968;51.424;6.788;2022-07-04T12:33:04;34.40;30.10
7846;DHT22;3968;51.424;6.788;2022-07-04T12:38:08;37.00;28.20
7846;DHT22;3968;51.424;6.788;2022-07-04T12:40:36;35.80;28.30
7846;DHT22;3968;51.424;6.788;2022-07-04T12:43:02;33.20;29.90
7846;DHT22;3968;51.424;6.788;2022-07-04T12:45:48;31.70;32.40
7846;DHT22;3968;51.424;6.788;2022-07-04T12:48:26;30.30;34.90
7846;DHT22;3968;51.424;6.788;2022-07-04T12:50:52;29.40;37.00
7846;DHT22;3968;51.424;6.788;2022-07-04T12:53:19;28.80;39.60
7846;DHT22;3968;51.424;6.788;2022-07-04T12:55:46;28.40;41.20
7846;DHT22;3968;51.424;6.788;2022-07-04T12:58:13;28.70;41.90
7846;DHT22;3968;51.424;6.788;2022-07-04T13:00:39;28.70;42.30
7846;DHT22;3968;51.424;6.788;2022-07-04T13:03:06;28.60;41.70
7846;DHT22;3968;51.424;6.788;2022-07-04T13:05:34;28.30;41.20
7846;DHT22;3968;51.424;6.788;2022-07-04T13:08:00;28.10;41.60
7846;DHT22;3968;51.424;6.788;2022-07-04T13:10:26;27.70;42.60
7846;DHT22;3968;51.424;6.788;2022-07-04T13:12:52;27.50;44.20
7846;DHT22;3968;51.424;6.788;2022-07-04T13:15:18;27.80;44.20
7846;DHT22;3968;51.424;6.788;2022-07-04T13:17:43;28.50;44.40
7846;DHT22;3968;51.424;6.788;2022-07-04T13:20:09;29.80;42.30
7846;DHT22;3968;51.424;6.788;2022-07-04T13:22:35;30.90;38.80
7846;DHT22;3968;51.424;6.788;2022-07-04T13:25:01;31.00;39.30
7846;DHT22;3968;51.424;6.788;2022-07-04T13:27:29;31.30;38.20
7846;DHT22;3968;51.424;6.788;2022-07-04T13:29:55;30.70;38.80
7846;DHT22;3968;51.424;6.788;2022-07-04T13:32:20;30.60;38.00
7846;DHT22;3968;51.424;6.788;2022-07-04T13:34:46;30.90;37.90
7846;DHT22;3968;51.424;6.788;2022-07-04T13:37:12;30.10;38.30
7846;DHT22;3968;51.424;6.788;2022-07-04T13:39:40;29.20;38.20
7846;DHT22;3968;51.424;6.788;2022-07-04T13:42:06;29.20;40.90
7846;DHT22;3968;51.424;6.788;2022-07-04T13:44:32;31.30;39.20
7846;DHT22;3968;51.424;6.788;2022-07-04T13:46:57;32.00;35.60
7846;DHT22;3968;51.424;6.788;2022-07-04T13:49:24;31.40;36.70
7846;DHT22;3968;51.424;6.788;2022-07-04T13:51:50;30.40;37.70
7846;DHT22;3968;51.424;6.788;2022-07-04T13:54:16;29.30;39.50
7846;DHT22;3968;51.424;6.788;2022-07-04T13:56:42;27.60;43.40
7846;DHT22;3968;51.424;6.788;2022-07-04T13:59:08;27.50;44.20
7846;DHT22;3968;51.424;6.788;2022-07-04T14:01:35;27.20;45.10
7846;DHT22;3968;51.424;6.788;2022-07-04T14:04:01;28.10;44.40
7846;DHT22;3968;51.424;6.788;2022-07-04T14:06:29;28.00;42.90
7846;DHT22;3968;51.424;6.788;2022-07-04T14:08:55;27.60;43.80
7846;DHT22;3968;51.424;6.788;2022-07-04T14:11:21;27.10;44.60
7846;DHT22;3968;51.424;6.788;2022-07-04T14:13:47;26.80;44.70
7846;DHT22;3968;51.424;6.788;2022-07-04T14:16:12;27.40;45.80
7846;DHT22;3968;51.424;6.788;2022-07-04T14:18:38;30.10;42.10
7846;DHT22;3968;51.424;6.788;2022-07-04T14:21:04;31.60;38.30
7846;DHT22;3968;51.424;6.788;2022-07-04T14:23:30;30.60;37.60
7846;DHT22;3968;51.424;6.788;2022-07-04T14:26:15;30.10;38.30
7846;DHT22;3968;51.424;6.788;2022-07-04T14:28:42;30.70;38.70
7846;DHT22;3968;51.424;6.788;2022-07-04T14:31:10;32.10;35.20
7846;DHT22;3968;51.424;6.788;2022-07-04T14:33:36;32.30;33.40
7846;DHT22;3968;51.424;6.788;2022-07-04T14:36:03;32.60;32.30
7846;DHT22;3968;51.424;6.788;2022-07-04T14:38:32;32.10;32.30
7846;DHT22;3968;51.424;6.788;2022-07-04T14:40:58;29.70;36.70
7846;DHT22;3968;51.424;6.788;2022-07-04T14:43:42;29.70;37.50
7846;DHT22;3968;51.424;6.788;2022-07-04T14:46:09;30.00;36.30
7846;DHT22;3968;51.424;6.788;2022-07-04T14:48:35;30.30;36.90
7846;DHT22;3968;51.424;6.788;2022-07-04T14:51:01;31.20;36.50
7846;DHT22;3968;51.424;6.788;2022-07-04T14:53:28;33.00;34.20
7846;DHT22;3968;51.424;6.788;2022-07-04T14:55:54;33.70;33.20
7846;DHT22;3968;51.424;6.788;2022-07-04T14:58:20;32.90;32.10
7846;DHT22;3968;51.424;6.788;2022-07-04T15:00:46;32.60;32.20
7846;DHT22;3968;51.424;6.788;2022-07-04T15:03:12;32.50;32.00
7846;DHT22;3968;51.424;6.788;2022-07-04T15:05:38;32.90;31.80
7846;DHT22;3968;51.424;6.788;2022-07-04T15:08:04;33.70;30.80
7846;DHT22;3968;51.424;6.788;2022-07-04T15:10:29;34.30;30.70
7846;DHT22;3968;51.424;6.788;2022-07-04T15:12:56;32.60;31.40
7846;DHT22;3968;51.424;6.788;2022-07-04T15:17:48;32.10;32.60
7846;DHT22;3968;51.424;6.788;2022-07-04T15:20:14;33.60;32.00
7846;DHT22;3968;51.424;6.788;2022-07-04T15:22:58;33.40;30.80
7846;DHT22;3968;51.424;6.788;2022-07-04T15:25:42;33.30;31.80
7846;DHT22;3968;51.424;6.788;2022-07-04T15:28:08;32.70;32.00
7846;DHT22;3968;51.424;6.788;2022-07-04T15:30:34;32.40;32.90
7846;DHT22;3968;51.424;6.788;2022-07-04T15:32:59;34.30;30.60
7846;DHT22;3968;51.424;6.788;2022-07-04T15:35:25;34.30;30.70
7846;DHT22;3968;51.424;6.788;2022-07-04T15:37:51;33.10;30.80
7846;DHT22;3968;51.424;6.788;2022-07-04T15:40:19;33.20;32.00
7846;DHT22;3968;51.424;6.788;2022-07-04T15:42:45;32.60;32.80
7846;DHT22;3968;51.424;6.788;2022-07-04T15:45:10;31.60;33.30
7846;DHT22;3968;51.424;6.788;2022-07-04T15:47:36;30.70;35.00
7846;DHT22;3968;51.424;6.788;2022-07-04T15:50:04;30.90;36.40
7846;DHT22;3968;51.424;6.788;2022-07-04T15:52:30;31.10;36.00
7846;DHT22;3968;51.424;6.788;2022-07-04T15:54:56;30.80;35.40
7846;DHT22;3968;51.424;6.788;2022-07-04T15:57:22;30.50;35.70
7846;DHT22;3968;51.424;6.788;2022-07-04T15:59:47;30.50;35.30
7846;DHT22;3968;51.424;6.788;2022-07-04T16:02:13;30.30;35.60
7846;DHT22;3968;51.424;6.788;2022-07-04T16:04:39;29.60;37.20
7846;DHT22;3968;51.424;6.788;2022-07-04T16:07:05;29.50;38.40
7846;DHT22;3968;51.424;6.788;2022-07-04T16:09:31;30.00;38.50
7846;DHT22;3968;51.424;6.788;2022-07-04T16:11:56;30.50;38.30
7846;DHT22;3968;51.424;6.788;2022-07-04T16:14:22;30.40;37.60
7846;DHT22;3968;51.424;6.788;2022-07-04T16:16:48;29.40;39.50
7846;DHT22;3968;51.424;6.788;2022-07-04T16:19:14;28.50;41.40
7846;DHT22;3968;51.424;6.788;2022-07-04T16:21:40;28.10;43.90
7846;DHT22;3968;51.424;6.788;2022-07-04T16:24:07;27.40;45.20
7846;DHT22;3968;51.424;6.788;2022-07-04T16:26:33;27.10;46.70
7846;DHT22;3968;51.424;6.788;2022-07-04T16:29:00;26.90;47.50
7846;DHT22;3968;51.424;6.788;2022-07-04T16:31:25;26.60;48.80
7846;DHT22;3968;51.424;6.788;2022-07-04T16:33:51;26.50;49.50
7846;DHT22;3968;51.424;6.788;2022-07-04T16:36:17;26.10;52.10
7846;DHT22;3968;51.424;6.788;2022-07-04T16:38:43;25.70;53.80
7846;DHT22;3968;51.424;6.788;2022-07-04T16:41:09;25.90;55.00
7846;DHT22;3968;51.424;6.788;2022-07-04T16:43:35;26.10;55.50
7846;DHT22;3968;51.424;6.788;2022-07-04T16:46:02;26.40;54.40
7846;DHT22;3968;51.424;6.788;2022-07-04T16:48:28;26.60;53.90